createdAt,value
2023-02-01T00:00:27.764Z,100446.22
2023-02-01T00:02:54.188Z,100440.84
2023-02-01T00:05:20.706Z,100450.47
2023-02-01T00:07:50.171Z,100431.38
2023-02-01T00:10:17.243Z,100432.22
2023-02-01T00:12:43.740Z,100432.28
2023-02-01T00:15:10.487Z,100425.44
2023-02-01T00:17:37.011Z,100424.34
2023-02-01T00:20:04.070Z,100418.25
2023-02-01T00:22:30.876Z,100420.06
2023-02-01T00:24:57.340Z,100407.91
2023-02-01T00:27:23.787Z,100409.69
2023-02-01T00:29:50.207Z,100412.31
2023-02-01T00:32:16.838Z,100413.16
2023-02-01T00:34:43.295Z,100410.78
2023-02-01T00:37:09.740Z,100411.75
2023-02-01T00:39:36.269Z,100417.91
2023-02-01T00:42:03.160Z,100417.84
2023-02-01T00:44:33.928Z,100412.72
2023-02-01T00:47:01.036Z,100419.56
2023-02-01T00:49:27.789Z,100415.09
2023-02-01T00:51:54.452Z,100421.25
2023-02-01T00:54:20.945Z,100418.69
2023-02-01T00:56:47.425Z,100414.25
2023-02-01T00:59:14.228Z,100407.31
2023-02-01T01:01:40.736Z,100405.44
2023-02-01T01:04:07.320Z,100407.25
2023-02-01T01:06:34.491Z,100402.81
2023-02-01T01:09:03.878Z,100388.94
2023-02-01T01:11:31.151Z,100394.03
2023-02-01T01:13:59.143Z,100394.75
2023-02-01T01:16:27.692Z,100392.94
2023-02-01T01:18:55.710Z,100395.41
2023-02-01T01:21:22.500Z,100384.09
2023-02-01T01:23:49.188Z,100379.75
2023-02-01T01:26:21.245Z,100389.19
2023-02-01T01:28:47.745Z,100375.25
2023-02-01T01:31:16.768Z,100379.66
2023-02-01T01:33:44.891Z,100396.06
2023-02-01T01:36:12.595Z,100393.31
2023-02-01T01:38:40.378Z,100395.09
2023-02-01T01:41:07.573Z,100378.59
2023-02-01T01:43:58.893Z,100379.38
2023-02-01T01:46:32.485Z,100371.72
2023-02-01T01:49:23.524Z,100372.63
2023-02-01T01:52:02.432Z,100357.03
2023-02-01T01:54:58.869Z,100358.88
2023-02-01T01:57:29.318Z,100352.84
2023-02-01T02:00:01.784Z,100360.03
2023-02-01T02:02:28.373Z,100360.84
2023-02-01T02:04:54.887Z,100353.94
2023-02-01T02:07:25.592Z,100351.31
2023-02-01T02:10:00.486Z,100354.00
2023-02-01T02:12:27.846Z,100353.06
2023-02-01T02:14:54.581Z,100346.06
2023-02-01T02:17:37.180Z,100339.03
2023-02-01T02:20:35.400Z,100339.84
2023-02-01T02:23:20.901Z,100321.56
2023-02-01T02:26:07.226Z,100321.56
2023-02-01T02:29:11.695Z,100321.50
2023-02-01T02:32:04.356Z,100306.59
2023-02-01T02:34:48.238Z,100297.81
2023-02-01T02:37:40.222Z,100312.66
2023-02-01T02:40:22.928Z,100304.78
2023-02-01T02:43:17.856Z,100302.94
2023-02-01T02:46:34.593Z,100296.00
2023-02-01T02:49:13.927Z,100301.19
2023-02-01T02:52:06.356Z,100299.31
2023-02-01T02:54:47.824Z,100305.50
2023-02-01T02:57:47.904Z,100300.28
2023-02-01T03:00:37.450Z,100302.75
2023-02-01T03:03:22.904Z,100316.00
2023-02-01T03:05:51.472Z,100311.72
2023-02-01T03:08:20.632Z,100319.41
2023-02-01T03:10:55.297Z,100305.69
2023-02-01T03:13:51.610Z,100308.16
2023-02-01T03:16:29.548Z,100303.88
2023-02-01T03:19:00.693Z,100301.34
2023-02-01T03:21:38.304Z,100307.63
2023-02-01T03:24:09.408Z,100310.38
2023-02-01T03:26:39.530Z,100312.19
2023-02-01T03:29:25.783Z,100315.78
2023-02-01T03:31:52.907Z,100306.09
2023-02-01T03:34:19.547Z,100300.06
2023-02-01T03:36:50.184Z,100306.97
2023-02-01T03:39:26.257Z,100308.78
2023-02-01T03:42:03.062Z,100315.06
2023-02-01T03:44:36.433Z,100324.63
2023-02-01T03:47:09.505Z,100325.53
2023-02-01T03:49:41.004Z,100344.66
2023-02-01T03:52:10.538Z,100346.53
2023-02-01T03:54:37.457Z,100355.22
2023-02-01T03:57:08.018Z,100341.41
2023-02-01T03:59:35.178Z,100332.72
2023-02-01T04:02:01.811Z,100336.16
2023-02-01T04:04:28.516Z,100325.72
2023-02-01T04:06:56.187Z,100319.50
2023-02-01T04:09:22.616Z,100317.97
2023-02-01T04:11:49.109Z,100309.94
2023-02-01T04:14:15.534Z,100318.66
2023-02-01T04:16:42.282Z,100318.53
2023-02-01T04:19:08.881Z,100315.00
2023-02-01T04:21:35.307Z,100315.97
2023-02-01T04:24:01.697Z,100313.34
2023-02-01T04:26:28.113Z,100314.16
2023-02-01T04:28:54.615Z,100305.31
2023-02-01T04:31:26.510Z,100318.28
2023-02-01T04:33:53.955Z,100320.88
2023-02-01T04:36:24.102Z,100318.25
2023-02-01T04:38:51.823Z,100313.72
2023-02-01T04:41:19.784Z,100317.28
2023-02-01T04:43:47.657Z,100313.00
2023-02-01T04:46:14.179Z,100318.19
2023-02-01T04:48:40.710Z,100311.22
2023-02-01T04:51:07.619Z,100316.41
2023-02-01T04:53:34.351Z,100313.69
2023-02-01T04:56:00.835Z,100315.56
2023-02-01T04:58:27.350Z,100315.78
2023-02-01T05:00:53.879Z,100317.31
2023-02-01T05:03:20.386Z,100327.78
2023-02-01T05:05:49.050Z,100335.56
2023-02-01T05:08:15.993Z,100333.84
2023-02-01T05:10:42.566Z,100334.75
2023-02-01T05:13:29.052Z,100329.66
2023-02-01T05:15:55.488Z,100335.75
2023-02-01T05:18:22.010Z,100334.94
2023-02-01T05:20:48.400Z,100335.00
2023-02-01T05:23:14.848Z,100335.81
2023-02-01T05:25:41.305Z,100335.00
2023-02-01T05:28:07.772Z,100325.38
2023-02-01T05:30:36.085Z,100322.78
2023-02-01T05:33:03.610Z,100312.31
2023-02-01T05:35:30.381Z,100319.19
2023-02-01T05:37:56.912Z,100313.28
2023-02-01T05:40:23.705Z,100302.75
2023-02-01T05:42:50.401Z,100306.34
2023-02-01T05:45:17.017Z,100294.31
2023-02-01T05:47:43.430Z,100298.72
2023-02-01T05:50:10.038Z,100281.50
2023-02-01T05:52:36.468Z,100293.63
2023-02-01T05:55:03.056Z,100296.25
2023-02-01T05:57:29.696Z,100295.28
2023-02-01T05:59:56.209Z,100300.59
2023-02-01T06:02:24.968Z,100304.03
2023-02-01T06:04:51.815Z,100316.19
2023-02-01T06:07:18.330Z,100311.88
2023-02-01T06:09:44.812Z,100304.84
2023-02-01T06:12:11.298Z,100309.00
2023-02-01T06:14:37.995Z,100307.31
2023-02-01T06:17:04.438Z,100305.41
2023-02-01T06:19:31.212Z,100306.16
2023-02-01T06:21:57.621Z,100303.59
2023-02-01T06:24:24.069Z,100318.25
2023-02-01T06:26:50.547Z,100291.22
2023-02-01T06:29:16.983Z,100306.66
2023-02-01T06:31:43.760Z,100294.28
2023-02-01T06:34:10.213Z,100290.63
2023-02-01T06:36:36.820Z,100303.50
2023-02-01T06:39:03.531Z,100312.94
2023-02-01T06:41:29.981Z,100313.94
2023-02-01T06:43:56.638Z,100308.53
2023-02-01T06:46:23.165Z,100307.69
2023-02-01T06:48:51.236Z,100311.22
2023-02-01T06:51:28.857Z,100325.53
2023-02-01T06:53:55.276Z,100326.53
2023-02-01T06:56:21.833Z,100323.75
2023-02-01T06:58:48.664Z,100348.25
2023-02-01T07:01:15.564Z,100351.19
2023-02-01T07:03:42.505Z,100352.06
2023-02-01T07:06:09.923Z,100331.84
2023-02-01T07:08:38.107Z,100329.28
2023-02-01T07:11:06.189Z,100334.00
2023-02-01T07:13:32.698Z,100341.22
2023-02-01T07:16:00.848Z,100331.25
2023-02-01T07:18:28.855Z,100331.59
2023-02-01T07:20:56.093Z,100331.88
2023-02-01T07:23:22.728Z,100325.19
2023-02-01T07:25:49.205Z,100325.41
2023-02-01T07:28:15.778Z,100316.59
2023-02-01T07:30:42.594Z,100323.00
2023-02-01T07:33:09.224Z,100314.03
2023-02-01T07:35:35.681Z,100309.66
2023-02-01T07:38:02.148Z,100313.13
2023-02-01T07:40:29.598Z,100321.75
2023-02-01T07:42:56.561Z,100326.97
2023-02-01T07:45:23.507Z,100330.50
2023-02-01T07:47:50.059Z,100340.88
2023-02-01T07:50:16.758Z,100334.72
2023-02-01T07:52:43.187Z,100337.34
2023-02-01T07:55:10.003Z,100342.44
2023-02-01T07:57:36.425Z,100354.63
2023-02-01T08:00:23.324Z,100344.84
2023-02-01T08:02:50.347Z,100357.00
2023-02-01T08:05:16.795Z,100365.75
2023-02-01T08:07:43.350Z,100365.59
2023-02-01T08:10:12.084Z,100361.94
2023-02-01T08:12:39.227Z,100365.47
2023-02-01T08:15:06.187Z,100364.53
2023-02-01T08:17:32.655Z,100367.09
2023-02-01T08:19:59.131Z,100373.03
2023-02-01T08:22:25.561Z,100383.25
2023-02-01T08:24:52.555Z,100376.88
2023-02-01T08:27:19.096Z,100383.63
2023-02-01T08:29:45.493Z,100385.19
2023-02-01T08:32:11.988Z,100382.28
2023-02-01T08:34:38.437Z,100392.63
2023-02-01T08:37:04.851Z,100392.56
2023-02-01T08:39:31.718Z,100399.53
2023-02-01T08:42:16.835Z,100397.72
2023-02-01T08:44:43.228Z,100387.09
2023-02-01T08:47:09.672Z,100396.69
2023-02-01T08:49:36.144Z,100399.22
2023-02-01T08:52:07.214Z,100400.72
2023-02-01T08:54:37.144Z,100404.88
2023-02-01T08:57:04.963Z,100414.38
2023-02-01T08:59:31.444Z,100400.19
2023-02-01T09:01:58.037Z,100406.13
2023-02-01T09:04:24.521Z,100413.97
2023-02-01T09:06:50.977Z,100409.56
2023-02-01T09:09:17.397Z,100403.50
2023-02-01T09:11:43.818Z,100406.84
2023-02-01T09:14:10.537Z,100412.25
2023-02-01T09:16:36.991Z,100413.09
2023-02-01T09:19:24.301Z,100403.41
2023-02-01T09:21:50.070Z,100402.53
2023-02-01T09:24:16.657Z,100399.97
2023-02-01T09:26:43.259Z,100399.31
2023-02-01T09:29:12.668Z,100407.19
2023-02-01T09:31:41.860Z,100410.41
2023-02-01T09:34:10.496Z,100415.63
2023-02-01T09:36:36.938Z,100421.72
2023-02-01T09:39:03.501Z,100431.19
2023-02-01T09:41:39.184Z,100439.69
2023-02-01T09:44:17.599Z,100456.91
2023-02-01T09:46:44.122Z,100471.56
2023-02-01T09:49:18.518Z,100471.56
2023-02-01T09:51:47.057Z,100484.66
2023-02-01T09:54:17.375Z,100475.97
2023-02-01T09:57:01.495Z,100489.09
2023-02-01T09:59:27.818Z,100491.84
2023-02-01T10:01:54.363Z,100495.31
2023-02-01T10:04:20.977Z,100488.31
2023-02-01T10:07:00.741Z,100487.44
2023-02-01T10:09:50.397Z,100487.44
2023-02-01T10:12:39.285Z,100494.47
2023-02-01T10:15:40.920Z,100491.72
2023-02-01T10:18:19.902Z,100484.66
2023-02-01T10:21:42.432Z,100485.47
2023-02-01T10:24:30.411Z,100483.78
2023-02-01T10:27:13.631Z,100474.13
2023-02-01T10:29:46.763Z,100481.81
2023-02-01T10:32:24.389Z,100474.56
2023-02-01T10:34:57.391Z,100471.94
2023-02-01T10:37:27.814Z,100457.81
2023-02-01T10:39:56.502Z,100455.06
2023-02-01T10:42:27.206Z,100449.22
2023-02-01T10:44:55.296Z,100442.16
2023-02-01T10:47:21.851Z,100444.56
2023-02-01T10:50:07.672Z,100438.38
2023-02-01T10:52:40.567Z,100436.34
2023-02-01T10:55:46.114Z,100437.16
2023-02-01T10:58:20.085Z,100431.69
2023-02-01T11:00:55.623Z,100423.56
2023-02-01T11:03:38.218Z,100421.59
2023-02-01T11:06:12.360Z,100413.00
2023-02-01T11:08:53.960Z,100397.34
2023-02-01T11:11:21.244Z,100403.44
2023-02-01T11:13:58.859Z,100392.25
2023-02-01T11:16:35.956Z,100387.91
2023-02-01T11:19:02.453Z,100391.50
2023-02-01T11:21:28.977Z,100395.84
2023-02-01T11:23:55.891Z,100402.78
2023-02-01T11:26:26.282Z,100398.47
2023-02-01T11:29:09.573Z,100401.09
2023-02-01T11:31:36.087Z,100399.38
2023-02-01T11:34:13.577Z,100405.47
2023-02-01T11:36:40.541Z,100395.88
2023-02-01T11:39:11.722Z,100392.34
2023-02-01T11:41:42.501Z,100391.44
2023-02-01T11:44:34.992Z,100397.41
2023-02-01T11:47:20.828Z,100403.44
2023-02-01T11:49:48.788Z,100394.78
2023-02-01T11:52:27.183Z,100396.53
2023-02-01T11:55:11.199Z,100399.00
2023-02-01T11:58:14.630Z,100395.38
2023-02-01T12:00:44.710Z,100404.91
2023-02-01T12:03:30.840Z,100398.63
2023-02-01T12:06:25.308Z,100394.03
2023-02-01T12:08:59.512Z,100387.84
2023-02-01T12:11:43.368Z,100384.22
2023-02-01T12:14:19.738Z,100384.22
2023-02-01T12:17:07.470Z,100378.00
2023-02-01T12:20:16.829Z,100371.03
2023-02-01T12:23:05.165Z,100377.16
2023-02-01T12:25:56.605Z,100371.25
2023-02-01T12:28:42.003Z,100365.09
2023-02-01T12:31:30.539Z,100365.91
2023-02-01T12:34:23.686Z,100359.84
2023-02-01T12:37:00.269Z,100359.81
2023-02-01T12:39:32.502Z,100360.56
2023-02-01T12:42:14.560Z,100361.50
2023-02-01T12:44:49.612Z,100353.69
2023-02-01T12:47:37.904Z,100358.94
2023-02-01T12:50:17.289Z,100351.06
2023-02-01T12:52:47.608Z,100347.66
2023-02-01T12:55:34.390Z,100342.25
2023-02-01T12:58:21.512Z,100324.03
2023-02-01T13:01:01.748Z,100316.22
2023-02-01T13:03:55.013Z,100309.25
2023-02-01T13:06:29.556Z,100303.16
2023-02-01T13:09:17.579Z,100314.41
2023-02-01T13:11:46.414Z,100304.00
2023-02-01T13:14:24.867Z,100299.72
2023-02-01T13:16:54.194Z,100297.00
2023-02-01T13:19:25.732Z,100287.38
2023-02-01T13:22:08.491Z,100293.56
2023-02-01T13:24:40.300Z,100292.81
2023-02-01T13:27:06.879Z,100288.53
2023-02-01T13:29:34.475Z,100288.53
2023-02-01T13:33:51.051Z,100289.50
2023-02-01T13:35:35.906Z,100297.50
2023-02-01T13:38:38.297Z,100296.66
2023-02-01T13:41:18.415Z,100293.28
2023-02-01T13:43:49.523Z,100295.13
2023-02-01T13:46:17.105Z,100287.25
2023-02-01T13:48:48.773Z,100297.75
2023-02-01T13:51:15.848Z,100307.41
2023-02-01T13:53:47.702Z,100309.97
2023-02-01T13:56:21.096Z,100295.03
2023-02-01T13:58:48.776Z,100304.66
2023-02-01T14:01:24.349Z,100305.63
2023-02-01T14:03:53.545Z,100317.84
2023-02-01T14:06:29.070Z,100309.91
2023-02-01T14:09:13.229Z,100303.81
2023-02-01T14:11:52.376Z,100300.44
2023-02-01T14:14:18.658Z,100302.75
2023-02-01T14:16:54.254Z,100302.81
2023-02-01T14:19:25.384Z,100303.66
2023-02-01T14:21:57.861Z,100307.19
2023-02-01T14:24:32.509Z,100313.31
2023-02-01T14:27:01.255Z,100306.28
2023-02-01T14:29:35.113Z,100327.31
2023-02-01T14:32:08.337Z,100312.69
2023-02-01T14:34:44.478Z,100309.06
2023-02-01T14:37:25.146Z,100300.31
2023-02-01T14:40:05.073Z,100306.28
2023-02-01T14:42:43.790Z,100304.56
2023-02-01T14:45:27.775Z,100303.59
2023-02-01T14:47:56.047Z,100301.75
2023-02-01T14:50:34.587Z,100303.47
2023-02-01T14:53:13.372Z,100305.09
2023-02-01T14:55:45.478Z,100305.91
2023-02-01T14:58:37.469Z,100290.94
2023-02-01T15:01:18.640Z,100289.19
2023-02-01T15:04:00.871Z,100301.38
2023-02-01T15:06:43.496Z,100291.72
2023-02-01T15:09:18.162Z,100288.13
2023-02-01T15:12:05.263Z,100288.94
2023-02-01T15:14:38.005Z,100288.03
2023-02-01T15:17:19.593Z,100283.56
2023-02-01T15:20:00.925Z,100286.97
2023-02-01T15:22:29.142Z,100286.97
2023-02-01T15:24:57.639Z,100289.53
2023-02-01T15:27:24.673Z,100291.31
2023-02-01T15:29:51.511Z,100286.97
2023-02-01T15:32:37.099Z,100297.28
2023-02-01T15:35:04.001Z,100289.47
2023-02-01T15:37:32.013Z,100292.94
2023-02-01T15:40:10.614Z,100304.31
2023-02-01T15:42:39.441Z,100301.69
2023-02-01T15:45:17.852Z,100311.09
2023-02-01T15:47:48.436Z,100302.19
2023-02-01T15:50:23.301Z,100297.03
2023-02-01T15:52:52.654Z,100289.25
2023-02-01T15:55:26.802Z,100297.84
2023-02-01T15:57:53.461Z,100290.84
2023-02-01T16:00:21.519Z,100295.03
2023-02-01T16:02:58.836Z,100281.97
2023-02-01T16:05:34.356Z,100282.00
2023-02-01T16:08:08.937Z,100287.34
2023-02-01T16:10:41.206Z,100295.31
2023-02-01T16:13:08.015Z,100278.72
2023-02-01T16:15:34.474Z,100289.31
2023-02-01T16:18:00.946Z,100286.91
2023-02-01T16:20:27.343Z,100289.59
2023-02-01T16:22:53.760Z,100297.56
2023-02-01T16:25:20.309Z,100294.09
2023-02-01T16:27:46.769Z,100305.38
2023-02-01T16:30:13.414Z,100294.84
2023-02-01T16:32:39.813Z,100306.34
2023-02-01T16:35:28.345Z,100311.69
2023-02-01T16:37:55.576Z,100313.53
2023-02-01T16:40:26.611Z,100305.88
2023-02-01T16:52:19.389Z,100325.00
2023-02-01T17:04:12.168Z,100312.25
2023-02-01T17:06:39.223Z,100296.66
2023-02-01T17:09:07.076Z,100301.03
2023-02-01T17:11:33.883Z,100292.38
2023-02-01T17:14:14.641Z,100302.75
2023-02-01T17:16:41.375Z,100290.78
2023-02-01T17:19:14.860Z,100290.66
2023-02-01T17:21:44.646Z,100291.50
2023-02-01T17:24:15.067Z,100295.13
2023-02-01T17:26:42.450Z,100282.84
2023-02-01T17:29:09.045Z,100282.06
2023-02-01T17:31:53.558Z,100290.66
2023-02-01T17:34:20.392Z,100292.38
2023-02-01T17:36:48.041Z,100295.19
2023-02-01T17:39:35.533Z,100298.75
2023-02-01T17:42:02.971Z,100318.66
2023-02-01T17:44:29.818Z,100306.50
2023-02-01T17:46:57.529Z,100305.63
2023-02-01T17:49:24.187Z,100300.63
2023-02-01T17:51:50.960Z,100315.41
2023-02-01T17:54:20.195Z,100326.66
2023-02-01T17:56:48.526Z,100308.59
2023-02-01T17:59:15.818Z,100318.91
2023-02-01T18:01:42.727Z,100311.88
2023-02-01T18:04:13.085Z,100326.59
2023-02-01T18:06:45.161Z,100317.06
2023-02-01T18:09:11.850Z,100310.16
2023-02-01T18:11:38.350Z,100306.56
2023-02-01T18:14:04.865Z,100312.69
2023-02-01T18:16:33.852Z,100315.22
2023-02-01T18:19:02.336Z,100315.38
2023-02-01T18:21:42.176Z,100316.22
2023-02-01T18:24:15.983Z,100322.19
2023-02-01T18:26:43.025Z,100319.66
2023-02-01T18:29:09.561Z,100311.09
2023-02-01T18:31:41.302Z,100318.13
2023-02-01T18:34:09.883Z,100317.84
2023-02-01T18:36:37.437Z,100317.13
2023-02-01T18:39:04.139Z,100318.69
2023-02-01T18:41:30.643Z,100317.06
2023-02-01T18:43:57.115Z,100309.13
2023-02-01T18:46:23.858Z,100320.34
2023-02-01T18:48:50.337Z,100320.66
2023-02-01T18:51:19.934Z,100316.28
2023-02-01T18:53:47.518Z,100302.44
2023-02-01T18:56:15.100Z,100311.03
2023-02-01T18:58:41.693Z,100312.13
2023-02-01T19:01:14.467Z,100318.84
2023-02-01T19:03:46.491Z,100312.75
2023-02-01T19:06:20.117Z,100310.13
2023-02-01T19:08:47.112Z,100320.34
2023-02-01T19:11:13.656Z,100321.31
2023-02-01T19:13:40.719Z,100328.28
2023-02-01T19:16:12.697Z,100324.81
2023-02-01T19:18:39.357Z,100324.09
2023-02-01T19:21:08.664Z,100323.13
2023-02-01T19:23:35.044Z,100328.44
2023-02-01T19:26:05.315Z,100331.19
2023-02-01T19:28:31.809Z,100321.72
2023-02-01T19:31:02.906Z,100326.34
2023-02-01T19:33:29.582Z,100335.75
2023-02-01T19:36:00.824Z,100335.94
2023-02-01T19:38:27.328Z,100325.50
2023-02-01T19:40:55.681Z,100336.66
2023-02-01T19:43:22.779Z,100342.75
2023-02-01T19:45:49.255Z,100345.44
2023-02-01T19:48:17.802Z,100333.22
2023-02-01T19:50:45.545Z,100340.06
2023-02-01T19:53:12.643Z,100336.75
2023-02-01T19:55:39.155Z,100339.94
2023-02-01T19:58:05.842Z,100333.81
2023-02-01T20:00:32.140Z,100343.28
2023-02-01T20:02:58.724Z,100343.41
2023-02-01T20:05:25.496Z,100348.59
2023-02-01T20:07:52.136Z,100358.13
2023-02-01T20:10:18.626Z,100354.84
2023-02-01T20:12:48.352Z,100351.28
2023-02-01T20:15:14.821Z,100352.16
2023-02-01T20:17:41.261Z,100358.13
2023-02-01T20:20:08.333Z,100353.59
2023-02-01T20:22:34.879Z,100360.75
2023-02-01T20:25:02.661Z,100361.47
2023-02-01T20:27:30.262Z,100351.03
2023-02-01T20:29:56.756Z,100357.84
2023-02-01T20:32:23.996Z,100361.41
2023-02-01T20:34:53.202Z,100365.56
2023-02-01T20:37:20.496Z,100375.16
2023-02-01T20:39:46.973Z,100356.84
2023-02-01T20:42:13.412Z,100358.50
2023-02-01T20:44:39.869Z,100361.34
2023-02-01T20:47:06.368Z,100354.31
2023-02-01T20:49:34.464Z,100349.84
2023-02-01T20:52:00.988Z,100363.72
2023-02-01T20:54:27.827Z,100363.72
2023-02-01T20:56:54.256Z,100364.53
2023-02-01T20:59:20.739Z,100360.84
2023-02-01T21:01:53.400Z,100353.75
2023-02-01T21:04:23.673Z,100359.19
2023-02-01T21:06:50.214Z,100359.19
2023-02-01T21:09:17.124Z,100352.19
2023-02-01T21:11:44.180Z,100363.44
2023-02-01T21:14:11.020Z,100353.75
2023-02-01T21:16:37.990Z,100348.69
2023-02-01T21:19:04.845Z,100349.56
2023-02-01T21:21:31.333Z,100353.09
2023-02-01T21:23:58.389Z,100373.06
2023-02-01T21:26:25.775Z,100371.25
2023-02-01T21:28:53.822Z,100374.72
2023-02-01T21:31:22.181Z,100381.69
2023-02-01T21:33:49.411Z,100369.78
2023-02-01T21:36:19.795Z,100368.78
2023-02-01T21:38:49.917Z,100377.22
2023-02-01T21:41:36.762Z,100382.53
2023-02-01T21:44:03.674Z,100379.25
2023-02-01T21:46:30.133Z,100380.09
2023-02-01T21:49:05.364Z,100382.59
2023-02-01T21:51:34.949Z,100380.63
2023-02-01T21:54:01.438Z,100378.91
2023-02-01T21:56:27.909Z,100379.88
2023-02-01T21:58:54.968Z,100380.75
2023-02-01T22:01:21.413Z,100379.84
2023-02-01T22:03:49.145Z,100372.88
2023-02-01T22:06:25.467Z,100368.59
2023-02-01T22:08:52.042Z,100372.16
2023-02-01T22:11:18.835Z,100374.63
2023-02-01T22:13:45.385Z,100379.25
2023-02-01T22:16:13.342Z,100386.09
2023-02-01T22:18:39.838Z,100373.13
2023-02-01T22:21:06.315Z,100376.69
2023-02-01T22:23:32.778Z,100380.31
2023-02-01T22:26:00.241Z,100367.16
2023-02-01T22:28:32.784Z,100373.31
2023-02-01T22:31:05.592Z,100377.56
2023-02-01T22:33:33.573Z,100376.75
2023-02-01T22:36:01.009Z,100382.94
2023-02-01T22:38:30.429Z,100378.53
2023-02-01T22:41:01.975Z,100378.41
2023-02-01T22:43:28.808Z,100375.69
2023-02-01T22:46:00.856Z,100377.47
2023-02-01T22:48:28.516Z,100370.38
2023-02-01T22:50:59.053Z,100371.31
2023-02-01T22:53:26.217Z,100366.09
2023-02-01T22:55:53.093Z,100368.53
2023-02-01T22:58:19.952Z,100365.06
2023-02-01T23:00:46.384Z,100367.63
2023-02-01T23:03:12.962Z,100362.38
2023-02-01T23:05:39.717Z,100373.66
2023-02-01T23:08:06.199Z,100369.34
2023-02-01T23:10:32.894Z,100377.00
2023-02-01T23:12:59.305Z,100370.91
2023-02-01T23:15:25.946Z,100378.00
2023-02-01T23:17:52.551Z,100371.09
2023-02-01T23:20:19.826Z,100366.75
2023-02-01T23:22:47.614Z,100367.69
2023-02-01T23:25:16.188Z,100371.31
2023-02-01T23:27:43.442Z,100359.09
2023-02-01T23:30:10.878Z,100360.91
2023-02-01T23:32:37.716Z,100385.22
2023-02-01T23:35:05.235Z,100383.47
2023-02-01T23:37:31.717Z,100371.50
2023-02-01T23:39:58.203Z,100370.50
2023-02-01T23:42:24.742Z,100375.94
2023-02-01T23:44:51.191Z,100374.13
2023-02-01T23:47:17.641Z,100374.19
2023-02-01T23:49:45.441Z,100368.13
2023-02-01T23:52:12.081Z,100389.75
2023-02-01T23:54:38.561Z,100372.63
2023-02-01T23:57:05.078Z,100372.63
2023-02-01T23:59:31.503Z,100371.88
